Time;durP1;ratioP1;P1;durP2;ratioP2;P2;SDS_P1;SDS_P2;PMS_P1;PMS_P2;Temp;Humidity;BMP_temperature;BMP_pressure;BME280_temperature;BME280_humidity;BME280_pressure;Samples;Min_cycle;Max_cycle;Signal;HPM_P1;HPM_P2
2024/02/15 00:01:55;;;;;;;86.43;31.77;;;10.80;97.90;;;;;;5017579;28;20246;-85
2024/02/15 00:04:21;;;;;;;81.63;31.27;;;10.80;97.90;;;;;;5035054;28;20684;-85
2024/02/15 00:06:47;;;;;;;81.40;30.60;;;10.70;97.90;;;;;;5017355;28;20184;-85
2024/02/15 00:09:12;;;;;;;84.07;29.73;;;10.70;97.80;;;;;;5035140;28;20259;-85
2024/02/15 00:11:39;;;;;;;82.20;29.67;;;10.70;97.90;;;;;;5035104;28;20177;-85
2024/02/15 00:14:05;;;;;;;82.27;30.83;;;10.80;97.90;;;;;;5017259;28;20209;-85
2024/02/15 00:16:30;;;;;;;76.47;27.97;;;10.80;97.90;;;;;;5017098;28;20606;-85
2024/02/15 00:18:56;;;;;;;72.23;29.10;;;10.80;97.90;;;;;;5017151;28;20204;-85
2024/02/15 00:21:22;;;;;;;77.23;30.90;;;10.80;97.90;;;;;;5035371;28;20257;-85
2024/02/15 00:23:48;;;;;;;67.77;27.93;;;10.80;97.90;;;;;;5035019;28;20193;-86
2024/02/15 00:26:14;;;;;;;74.07;29.40;;;10.70;97.90;;;;;;5034694;28;20184;-85
2024/02/15 00:28:43;;;;;;;72.80;27.37;;;10.80;97.90;;;;;;5017011;28;20188;-85
2024/02/15 00:31:08;;;;;;;72.83;28.63;;;10.80;97.90;;;;;;5035457;28;20608;-85
2024/02/15 00:33:36;;;;;;;67.37;27.87;;;10.80;97.90;;;;;;5033807;28;20245;-85
2024/02/15 00:36:03;;;;;;;67.53;27.40;;;10.80;97.90;;;;;;5016863;28;20177;-85
2024/02/15 00:38:29;;;;;;;70.93;28.60;;;10.80;97.90;;;;;;5034477;28;20279;-86
2024/02/15 00:40:55;;;;;;;56.87;25.83;;;10.80;97.90;;;;;;5016918;28;20212;-84
2024/02/15 00:43:20;;;;;;;64.87;28.70;;;10.80;97.90;;;;;;5034869;28;20199;-85
2024/02/15 00:45:46;;;;;;;70.67;32.30;;;10.80;97.90;;;;;;5034737;28;20212;-85
2024/02/15 00:48:12;;;;;;;72.33;31.53;;;10.80;97.90;;;;;;5034497;28;20185;-85
2024/02/15 00:50:38;;;;;;;66.17;26.00;;;10.80;97.90;;;;;;5034748;28;20625;-85
2024/02/15 00:53:03;;;;;;;66.40;24.63;;;10.80;97.90;;;;;;5016926;28;20264;-85
2024/02/15 00:55:29;;;;;;;66.87;25.10;;;10.80;97.90;;;;;;5016955;28;20187;-85
2024/02/15 00:57:54;;;;;;;73.87;27.73;;;10.80;97.90;;;;;;5034149;28;20198;-85
2024/02/15 01:00:20;;;;;;;70.87;27.10;;;10.80;97.90;;;;;;5034375;28;20259;-85
2024/02/15 01:02:46;;;;;;;70.47;26.63;;;10.80;97.90;;;;;;5034498;28;20204;-85
2024/02/15 01:05:15;;;;;;;68.43;27.83;;;10.80;97.90;;;;;;5033893;28;20212;-85
2024/02/15 01:07:41;;;;;;;63.83;26.57;;;10.80;97.90;;;;;;5016598;28;20247;-85
2024/02/15 01:10:07;;;;;;;68.10;26.33;;;10.80;97.90;;;;;;5016632;28;20181;-85
2024/02/15 01:12:33;;;;;;;60.63;24.50;;;10.80;97.90;;;;;;5033914;28;20172;-86
2024/02/15 01:14:58;;;;;;;70.27;26.87;;;10.80;97.90;;;;;;5016250;28;20182;-85
2024/02/15 01:17:24;;;;;;;74.33;26.60;;;10.80;97.90;;;;;;5034265;28;20618;-85
2024/02/15 01:19:49;;;;;;;65.83;26.57;;;10.80;97.90;;;;;;5034045;28;20223;-85
2024/02/15 01:22:15;;;;;;;69.63;27.07;;;10.80;97.90;;;;;;5034461;28;20176;-88
2024/02/15 01:24:41;;;;;;;61.93;25.60;;;10.80;97.90;;;;;;5034117;28;20247;-87
2024/02/15 01:27:07;;;;;;;64.00;27.10;;;10.80;97.90;;;;;;5016003;28;20169;-85
2024/02/15 01:29:33;;;;;;;69.33;27.20;;;10.80;97.90;;;;;;5016082;28;20173;-85
2024/02/15 01:31:58;;;;;;;66.83;28.00;;;10.80;97.90;;;;;;5033681;28;20292;-85
2024/02/15 01:34:24;;;;;;;63.40;28.20;;;10.80;97.90;;;;;;5015812;28;20263;-86
2024/02/15 01:36:50;;;;;;;61.70;25.60;;;10.80;97.90;;;;;;5033756;28;20551;-85
2024/02/15 01:39:16;;;;;;;65.20;26.33;;;10.80;97.90;;;;;;5033486;28;20271;-85
2024/02/15 01:41:47;;;;;;;71.17;25.73;;;;;;;;;;5015639;28;20276;-85
2024/02/15 01:44:13;;;;;;;65.90;26.30;;;10.80;97.90;;;;;;5015367;28;20227;-85
2024/02/15 01:46:39;;;;;;;65.97;28.07;;;10.80;97.90;;;;;;5015672;28;20706;-85
2024/02/15 01:49:07;;;;;;;63.70;26.90;;;10.80;97.90;;;;;;5033817;28;20195;-85
2024/02/15 01:51:36;;;;;;;61.33;25.63;;;10.80;97.80;;;;;;5033696;28;20188;-85
2024/02/15 01:54:02;;;;;;;58.63;24.93;;;10.80;97.80;;;;;;5033389;28;20179;-85
2024/02/15 01:56:30;;;;;;;59.70;25.97;;;10.80;97.90;;;;;;5015618;28;20267;-85
2024/02/15 01:58:56;;;;;;;57.70;26.70;;;10.80;97.80;;;;;;5015502;28;20212;-86
2024/02/15 02:01:22;;;;;;;59.37;26.33;;;10.80;97.90;;;;;;5033539;28;20211;-85
2024/02/15 02:03:48;;;;;;;57.50;26.07;;;10.80;97.80;;;;;;5015667;28;20236;-85
2024/02/15 02:06:14;;;;;;;56.63;26.23;;;10.80;97.80;;;;;;5033478;28;20252;-85
2024/02/15 02:08:39;;;;;;;58.17;26.73;;;10.80;97.80;;;;;;5033303;28;20246;-85
2024/02/15 02:11:05;;;;;;;61.30;27.37;;;10.80;97.80;;;;;;5033888;28;20644;-85
2024/02/15 02:13:31;;;;;;;60.37;26.07;;;10.80;97.80;;;;;;5035045;28;20263;-85
2024/02/15 02:15:56;;;;;;;60.83;26.13;;;10.80;97.80;;;;;;5015238;28;20184;-85
2024/02/15 02:18:24;;;;;;;60.53;26.27;;;10.80;97.80;;;;;;5033483;28;20271;-86
2024/02/15 02:20:49;;;;;;;57.23;25.53;;;10.80;97.80;;;;;;5033292;28;20246;-85
2024/02/15 02:23:18;;;;;;;50.47;26.27;;;10.80;97.80;;;;;;5032986;28;20543;-84
2024/02/15 02:25:44;;;;;;;52.77;24.07;;;10.90;97.80;;;;;;5032844;28;20196;-84
2024/02/15 02:28:10;;;;;;;47.63;22.60;;;10.90;97.80;;;;;;5015112;28;20625;-85
2024/02/15 02:30:36;;;;;;;52.77;24.60;;;10.80;97.70;;;;;;5032713;28;20200;-85
2024/02/15 02:33:04;;;;;;;51.13;24.77;;;10.90;97.80;;;;;;5014891;28;20177;-85
2024/02/15 02:35:33;;;;;;;55.97;25.97;;;10.80;97.70;;;;;;5033036;28;20172;-85
2024/02/15 02:37:58;;;;;;;48.83;24.73;;;10.90;97.80;;;;;;5032577;28;20680;-85
2024/02/15 02:40:24;;;;;;;55.87;26.17;;;10.80;97.70;;;;;;5032587;28;20177;-85
2024/02/15 02:42:56;;;;;;;54.20;27.47;;;10.90;97.70;;;;;;5032625;28;20593;-84
2024/02/15 02:45:22;;;;;;;51.57;26.00;;;10.90;97.70;;;;;;5014951;28;20577;-85
2024/02/15 02:47:52;;;;;;;46.03;24.77;;;10.90;97.70;;;;;;5015105;28;20274;-86
2024/02/15 02:50:18;;;;;;;54.30;25.03;;;10.90;97.70;;;;;;5015019;28;20173;-85
2024/02/15 02:52:44;;;;;;;53.80;26.20;;;10.90;97.70;;;;;;5032550;28;20200;-85
2024/02/15 02:55:11;;;;;;;51.70;25.10;;;10.90;97.70;;;;;;5032446;28;20579;-85
2024/02/15 02:57:39;;;;;;;60.10;28.67;;;10.90;97.70;;;;;;5036406;28;20342;-85
2024/02/15 03:00:12;;;;;;;50.80;24.63;;;10.90;97.60;;;;;;5018507;28;20238;-85
2024/02/15 03:02:45;;;;;;;53.70;25.00;;;10.90;97.60;;;;;;5018411;28;20172;-84
2024/02/15 03:05:12;;;;;;;54.60;26.83;;;10.90;97.60;;;;;;5035889;28;20255;-85
2024/02/15 03:07:42;;;;;;;51.50;25.90;;;10.90;97.60;;;;;;5036087;28;20599;-85
2024/02/15 03:10:09;;;;;;;46.97;24.20;;;10.90;97.60;;;;;;5036332;28;20177;-85
2024/02/15 03:12:36;;;;;;;48.17;24.70;;;10.90;97.60;;;;;;5035947;28;20523;-85
2024/02/15 03:15:03;;;;;;;43.97;23.20;;;10.90;97.60;;;;;;5018096;28;20180;-85
2024/02/15 03:17:31;;;;;;;41.73;24.30;;;10.90;97.60;;;;;;5036097;28;20688;-85
2024/02/15 03:19:57;;;;;;;46.20;23.97;;;10.90;97.50;;;;;;5018218;28;20624;-85
2024/02/15 03:22:24;;;;;;;56.97;26.70;;;10.90;97.60;;;;;;5035840;28;20219;-85
2024/02/15 03:24:50;;;;;;;58.70;25.93;;;10.80;97.50;;;;;;5035728;28;20196;-85
2024/02/15 03:27:15;;;;;;;50.67;23.97;;;10.90;97.60;;;;;;5035962;28;20176;-85
2024/02/15 03:29:41;;;;;;;55.23;26.70;;;10.90;97.50;;;;;;5035784;28;20184;-85
2024/02/15 03:32:06;;;;;;;51.53;23.43;;;10.90;97.50;;;;;;5017971;28;20180;-85
2024/02/15 03:34:32;;;;;;;53.50;28.97;;;10.80;97.50;;;;;;5035814;28;20204;-85
2024/02/15 03:36:58;;;;;;;55.53;28.63;;;10.90;97.50;;;;;;5035821;28;20211;-85
2024/02/15 03:39:24;;;;;;;56.50;30.37;;;10.90;97.50;;;;;;5035507;28;20207;-84
2024/02/15 03:41:53;;;;;;;59.40;30.20;;;10.80;97.50;;;;;;5035677;28;20175;-84
2024/02/15 03:44:19;;;;;;;58.07;28.83;;;10.90;97.50;;;;;;5035518;28;20262;-85
2024/02/15 03:46:50;;;;;;;60.87;29.87;;;10.90;97.50;;;;;;5035553;28;20677;-85
2024/02/15 03:49:17;;;;;;;65.63;32.20;;;10.90;97.50;;;;;;5017693;28;20196;-85
2024/02/15 03:51:44;;;;;;;69.47;31.67;;;10.80;97.50;;;;;;5035402;28;20179;-85
2024/02/15 03:54:11;;;;;;;65.27;31.70;;;10.80;97.50;;;;;;5017577;28;20645;-85
2024/02/15 03:56:37;;;;;;;70.87;31.47;;;10.80;97.50;;;;;;5035932;28;20173;-85
2024/02/15 03:59:04;;;;;;;71.63;34.87;;;10.70;97.50;;;;;;5035267;28;20192;-85
2024/02/15 04:01:33;;;;;;;68.27;32.77;;;10.80;97.50;;;;;;5035447;28;20176;-85
2024/02/15 04:03:59;;;;;;;68.60;31.33;;;10.80;97.50;;;;;;5035091;28;20201;-85
2024/02/15 04:06:27;;;;;;;67.40;31.60;;;10.80;97.50;;;;;;5034800;28;20223;-85
2024/02/15 04:08:53;;;;;;;75.07;31.20;;;10.80;97.50;;;;;;5035361;28;20669;-86
2024/02/15 04:11:19;;;;;;;67.63;29.53;;;10.90;97.50;;;;;;5035182;28;20196;-85
2024/02/15 04:13:45;;;;;;;61.07;28.40;;;10.80;97.50;;;;;;5035029;28;20177;-85
2024/02/15 04:16:10;;;;;;;64.70;27.73;;;10.80;97.40;;;;;;5017146;28;20188;-85
2024/02/15 04:18:37;;;;;;;62.67;30.90;;;10.90;97.40;;;;;;5017234;28;20318;-85
2024/02/15 04:21:05;;;;;;;59.37;28.57;;;10.90;97.40;;;;;;5035253;28;20189;-85
2024/02/15 04:23:31;;;;;;;63.20;29.80;;;10.90;97.40;;;;;;5016883;28;20231;-85
2024/02/15 04:25:57;;;;;;;61.73;28.33;;;10.90;97.40;;;;;;5034809;28;20250;-85
2024/02/15 04:28:23;;;;;;;62.63;29.53;;;10.90;97.40;;;;;;5034555;28;20664;-85
2024/02/15 04:30:49;;;;;;;63.33;30.80;;;10.90;97.40;;;;;;5034686;28;20172;-85
2024/02/15 04:33:15;;;;;;;59.07;28.43;;;11.00;97.40;;;;;;5034634;28;20165;-85
2024/02/15 04:35:41;;;;;;;65.60;28.80;;;10.90;97.40;;;;;;5034678;28;20242;-85
2024/02/15 04:38:08;;;;;;;70.73;29.87;;;10.80;97.30;;;;;;5034485;28;20196;-85
2024/02/15 04:40:34;;;;;;;57.63;29.87;;;10.80;97.30;;;;;;5016616;28;20797;-85
2024/02/15 04:43:01;;;;;;;67.30;30.50;;;10.80;97.30;;;;;;5034515;28;20173;-85
2024/02/15 04:45:27;;;;;;;67.60;29.53;;;10.80;97.30;;;;;;5016918;28;20211;-85
2024/02/15 04:47:53;;;;;;;68.33;30.40;;;10.80;97.30;;;;;;5016829;28;20275;-86
2024/02/15 04:50:20;;;;;;;69.80;30.30;;;10.80;97.30;;;;;;5034342;28;20255;-85
2024/02/15 04:52:48;;;;;;;66.97;31.33;;;10.90;97.40;;;;;;5034864;28;20248;-85
2024/02/15 04:55:15;;;;;;;66.57;30.50;;;10.80;97.30;;;;;;5034406;28;20219;-85
2024/02/15 04:57:41;;;;;;;62.50;30.60;;;10.80;97.30;;;;;;5034047;28;20672;-85
2024/02/15 05:00:12;;;;;;;77.93;30.37;;;10.80;97.30;;;;;;5033986;28;20181;-85
2024/02/15 05:02:44;;;;;;;70.53;31.97;;;10.80;97.30;;;;;;5016791;28;20208;-85
2024/02/15 05:05:12;;;;;;;71.03;31.03;;;10.90;97.40;;;;;;5034394;28;20293;-85
2024/02/15 05:07:39;;;;;;;71.60;30.10;;;11.00;97.40;;;;;;5034556;28;20269;-85
2024/02/15 05:10:06;;;;;;;71.47;30.07;;;10.90;97.40;;;;;;5034330;28;20246;-86
2024/02/15 05:12:33;;;;;;;66.23;30.17;;;11.00;97.40;;;;;;5016195;28;20179;-85
2024/02/15 05:14:59;;;;;;;72.47;32.73;;;11.00;97.40;;;;;;5034380;28;20184;-85
2024/02/15 05:17:24;;;;;;;70.70;29.57;;;10.90;97.40;;;;;;5034330;28;20200;-89
2024/02/15 05:19:50;;;;;;;82.17;33.40;;;10.90;97.40;;;;;;5015734;28;20181;-85
2024/02/15 05:22:15;;;;;;;82.33;30.07;;;10.90;97.40;;;;;;5034385;28;20608;-85
2024/02/15 05:24:41;;;;;;;77.17;31.57;;;10.90;97.40;;;;;;5034214;28;20693;-85
2024/02/15 05:27:07;;;;;;;75.10;30.70;;;10.90;97.40;;;;;;5016201;28;20554;-85
2024/02/15 05:29:35;;;;;;;69.90;30.03;;;10.80;97.40;;;;;;5034263;28;20177;-85
2024/02/15 05:32:01;;;;;;;75.13;30.30;;;10.80;97.40;;;;;;5017111;28;20176;-85
2024/02/15 05:34:29;;;;;;;79.27;32.70;;;10.90;97.50;;;;;;5016056;28;20640;-86
2024/02/15 05:36:55;;;;;;;79.90;31.10;;;10.80;97.40;;;;;;5016249;28;20272;-85
2024/02/15 05:39:22;;;;;;;76.37;31.47;;;10.90;97.50;;;;;;5033822;28;20239;-85
2024/02/15 05:41:48;;;;;;;79.53;30.70;;;10.80;97.50;;;;;;5016241;28;20180;-85
2024/02/15 05:44:18;;;;;;;77.63;32.27;;;10.90;97.50;;;;;;5016313;28;20204;-86
2024/02/15 05:46:44;;;;;;;78.17;32.47;;;11.00;97.50;;;;;;5034363;28;20157;-85
2024/02/15 05:49:15;;;;;;;87.97;34.13;;;11.00;97.50;;;;;;5033608;28;20618;-85
2024/02/15 05:51:41;;;;;;;83.63;33.83;;;10.90;97.50;;;;;;5016018;28;20165;-85
2024/02/15 05:54:06;;;;;;;82.17;34.17;;;11.00;97.60;;;;;;5033803;28;20177;-85
2024/02/15 05:56:32;;;;;;;90.27;36.03;;;11.00;97.60;;;;;;5033623;28;20663;-86
2024/02/15 05:58:58;;;;;;;80.97;33.57;;;11.00;97.60;;;;;;5033932;28;20196;-85
2024/02/15 06:01:23;;;;;;;94.80;36.17;;;11.00;97.60;;;;;;5033796;28;20594;-85
2024/02/15 06:03:49;;;;;;;89.80;34.83;;;11.00;97.60;;;;;;5033441;28;20303;-86
2024/02/15 06:06:15;;;;;;;98.50;36.10;;;10.90;97.50;;;;;;5033563;28;20173;-88
2024/02/15 06:08:40;;;;;;;93.90;37.77;;;10.90;97.50;;;;;;5015871;28;20250;-85
2024/02/15 06:11:06;;;;;;;79.87;33.17;;;10.80;97.50;;;;;;5015924;28;20176;-85
2024/02/15 06:13:32;;;;;;;84.47;32.13;;;10.80;97.50;;;;;;5033527;28;20169;-85
2024/02/15 06:15:58;;;;;;;83.37;35.10;;;10.90;97.50;;;;;;5033602;28;20546;-85
2024/02/15 06:18:27;;;;;;;80.10;32.73;;;11.00;97.50;;;;;;5015567;28;20204;-85
2024/02/15 06:20:53;;;;;;;79.67;32.23;;;10.90;97.50;;;;;;5033263;28;20211;-85
2024/02/15 06:23:18;;;;;;;70.10;31.50;;;10.90;97.50;;;;;;5015667;28;20786;-85
2024/02/15 06:25:47;;;;;;;72.37;31.37;;;10.90;97.50;;;;;;5033902;28;20173;-86
2024/02/15 06:28:19;;;;;;;77.17;33.20;;;10.90;97.50;;;;;;5015544;28;20218;-85
2024/02/15 06:41:44;;;;;;;66.10;29.87;;;11.00;97.40;;;;;;5037763;28;20192;-86
2024/02/15 06:44:09;;;;;;;68.00;30.63;;;11.00;97.40;;;;;;5019383;28;20680;-84
2024/02/15 06:46:35;;;;;;;64.73;29.87;;;11.00;97.30;;;;;;5038034;28;20181;-85
2024/02/15 06:49:01;;;;;;;54.43;26.80;;;10.90;97.30;;;;;;5019720;28;20196;-85
2024/02/15 06:51:26;;;;;;;64.30;27.87;;;11.00;97.30;;;;;;5019848;28;20176;-85
2024/02/15 06:53:55;;;;;;;52.57;26.30;;;11.00;97.20;;;;;;5037923;28;20707;-85
2024/02/15 06:56:21;;;;;;;52.20;25.13;;;11.00;97.20;;;;;;5020076;28;20235;-85
2024/02/15 06:58:48;;;;;;;50.87;26.07;;;11.00;97.10;;;;;;5037641;28;20687;-84
2024/02/15 07:01:16;;;;;;;46.43;24.97;;;11.00;97.10;;;;;;5037278;28;20211;-86
2024/02/15 07:03:45;;;;;;;51.83;27.70;;;11.00;97.10;;;;;;5019914;28;20216;-85
2024/02/15 07:06:13;;;;;;;44.67;25.87;;;11.00;97.00;;;;;;5037788;28;20219;-87
2024/02/15 07:08:39;;;;;;;45.13;24.87;;;11.00;97.00;;;;;;5037645;28;20687;-85
2024/02/15 07:11:09;;;;;;;44.50;24.30;;;11.00;97.00;;;;;;5037223;28;20252;-88
2024/02/15 07:13:38;;;;;;;45.10;22.73;;;11.00;96.90;;;;;;5019785;28;20208;-84
2024/02/15 07:16:07;;;;;;;49.37;25.40;;;10.90;96.90;;;;;;5037199;28;20177;-86
2024/02/15 07:18:33;;;;;;;49.37;25.83;;;11.00;96.90;;;;;;5019321;28;20200;-87
2024/02/15 07:21:00;;;;;;;40.87;23.27;;;11.00;96.90;;;;;;5036989;28;20195;-85
2024/02/15 07:23:27;;;;;;;40.33;22.27;;;11.10;96.80;;;;;;5037257;28;20223;-84
2024/02/15 07:25:53;;;;;;;44.03;24.50;;;11.00;96.80;;;;;;5019043;28;20401;-86
2024/02/15 07:28:20;;;;;;;42.47;23.20;;;11.00;96.80;;;;;;5018869;28;20688;-85
2024/02/15 07:30:48;;;;;;;41.10;22.90;;;11.00;96.70;;;;;;5036966;28;20180;-85
2024/02/15 07:33:16;;;;;;;39.57;21.47;;;11.00;96.70;;;;;;5019161;28;20206;-87
2024/02/15 07:35:46;;;;;;;40.73;24.07;;;11.00;96.70;;;;;;5036697;28;20168;-85
2024/02/15 07:38:12;;;;;;;43.53;23.70;;;11.00;96.70;;;;;;5036915;28;20224;-85
2024/02/15 07:40:39;;;;;;;36.70;22.63;;;11.00;96.60;;;;;;5036515;28;20173;-86
2024/02/15 07:43:06;;;;;;;34.50;19.37;;;11.00;96.60;;;;;;5018025;28;20187;-86
2024/02/15 07:45:35;;;;;;;42.57;21.40;;;11.00;96.70;;;;;;5037030;28;20203;-85
2024/02/15 07:48:00;;;;;;;39.53;20.83;;;11.00;96.70;;;;;;5018681;28;20192;-86
2024/02/15 07:50:26;;;;;;;42.43;20.73;;;11.00;96.60;;;;;;5018706;28;20599;-85
2024/02/15 07:52:53;;;;;;;39.70;19.60;;;11.00;96.70;;;;;;5036543;28;20223;-85
2024/02/15 07:55:19;;;;;;;37.40;20.37;;;11.00;96.60;;;;;;5036538;28;20581;-85
2024/02/15 07:57:46;;;;;;;37.87;19.07;;;11.10;96.70;;;;;;5036528;28;20578;-86
2024/02/15 08:00:12;;;;;;;35.23;19.33;;;11.00;96.60;;;;;;5037120;28;20255;-85
2024/02/15 08:02:41;;;;;;;36.83;19.97;;;11.10;96.70;;;;;;5018286;28;20177;-85
2024/02/15 08:05:10;;;;;;;36.70;19.07;;;11.10;96.70;;;;;;5035966;28;20624;-85
2024/02/15 08:07:47;;;;;;;41.20;20.43;;;11.10;96.70;;;;;;5036459;28;20188;-85
2024/02/15 08:10:13;;;;;;;39.93;20.30;;;11.10;96.70;;;;;;5018548;28;20168;-85
2024/02/15 08:12:41;;;;;;;37.13;18.47;;;11.10;96.70;;;;;;5036304;28;20169;-85
2024/02/15 08:15:11;;;;;;;39.50;20.33;;;11.10;96.80;;;;;;5018367;28;20271;-85
2024/02/15 08:17:39;;;;;;;43.07;21.50;;;11.10;96.80;;;;;;5036228;28;20199;-85
2024/02/15 08:20:07;;;;;;;39.57;20.67;;;11.10;96.80;;;;;;5018093;28;20181;-86
2024/02/15 08:22:33;;;;;;;45.73;20.73;;;11.10;96.90;;;;;;5036760;28;20176;-86
2024/02/15 08:24:59;;;;;;;56.13;22.67;;;11.10;96.90;;;;;;5036267;28;20197;-85
2024/02/15 08:27:25;;;;;;;44.93;20.47;;;11.10;96.90;;;;;;5017771;28;20197;-85
2024/02/15 08:29:51;;;;;;;52.00;21.47;;;11.10;97.00;;;;;;5036228;28;20172;-85
2024/02/15 08:32:17;;;;;;;48.03;21.37;;;11.10;97.00;;;;;;5035812;28;20183;-85
2024/02/15 08:34:42;;;;;;;52.07;21.83;;;11.20;97.10;;;;;;5035697;28;20177;-85
2024/02/15 08:37:08;;;;;;;53.87;22.93;;;11.20;97.10;;;;;;5035542;28;20177;-85
2024/02/15 08:39:33;;;;;;;54.77;23.13;;;11.10;97.10;;;;;;5035987;28;20255;-87
2024/02/15 08:41:59;;;;;;;54.23;22.67;;;11.20;97.10;;;;;;5035926;28;20177;-85
2024/02/15 08:44:25;;;;;;;58.50;24.47;;;11.10;97.20;;;;;;5017923;28;20200;-85
2024/02/15 08:46:50;;;;;;;58.40;24.57;;;11.10;97.20;;;;;;5017536;28;20177;-85
2024/02/15 08:49:16;;;;;;;69.43;26.23;;;11.10;97.20;;;;;;5017904;28;20200;-85
2024/02/15 08:51:42;;;;;;;65.30;27.53;;;11.20;97.20;;;;;;5017755;28;20525;-87
2024/02/15 08:54:08;;;;;;;67.87;26.70;;;11.10;97.20;;;;;;5016896;28;20180;-88
2024/02/15 08:56:35;;;;;;;69.93;28.17;;;11.20;97.20;;;;;;5035953;28;20168;-86
2024/02/15 08:59:01;;;;;;;68.37;26.97;;;11.20;97.30;;;;;;5017307;28;20203;-86
2024/02/15 09:01:26;;;;;;;67.63;27.57;;;11.20;97.30;;;;;;5035649;28;20575;-86
2024/02/15 09:03:52;;;;;;;68.97;27.60;;;11.30;97.30;;;;;;5035971;28;20214;-85
2024/02/15 09:06:17;;;;;;;78.57;29.50;;;11.20;97.30;;;;;;5018157;28;20185;-87
2024/02/15 09:08:43;;;;;;;63.23;26.77;;;11.30;97.30;;;;;;5036134;28;20192;-86
2024/02/15 09:11:12;;;;;;;73.30;29.43;;;11.30;97.30;;;;;;5017798;28;20220;-87
2024/02/15 09:13:38;;;;;;;74.57;28.70;;;11.20;97.30;;;;;;5017622;28;20550;-86
2024/02/15 09:16:04;;;;;;;68.13;28.90;;;11.30;97.40;;;;;;5035006;28;20687;-85
2024/02/15 09:18:30;;;;;;;76.57;29.63;;;11.30;97.40;;;;;;5016836;28;20211;-86
2024/02/15 09:20:56;;;;;;;78.00;28.83;;;11.30;97.40;;;;;;5034931;28;20629;-86
2024/02/15 09:23:23;;;;;;;69.97;29.83;;;11.30;97.40;;;;;;5034659;28;20171;-88
2024/02/15 09:25:51;;;;;;;72.20;29.80;;;11.40;97.40;;;;;;5017140;28;20653;-85
2024/02/15 09:28:21;;;;;;;75.77;30.30;;;11.30;97.40;;;;;;5035206;28;20188;-86
2024/02/15 09:30:48;;;;;;;76.03;28.47;;;11.40;97.40;;;;;;5034856;28;20153;-85
2024/02/15 09:33:13;;;;;;;76.37;30.23;;;11.40;97.40;;;;;;5034742;28;20207;-85
2024/02/15 09:35:39;;;;;;;72.27;30.27;;;11.40;97.50;;;;;;5017276;28;20204;-85
2024/02/15 09:38:06;;;;;;;68.30;28.23;;;11.40;97.50;;;;;;5035043;28;20232;-85
2024/02/15 09:40:31;;;;;;;68.90;29.00;;;11.50;97.50;;;;;;5016605;28;20179;-85
2024/02/15 09:42:57;;;;;;;67.93;28.43;;;11.50;97.50;;;;;;5035081;28;20177;-86
2024/02/15 09:45:24;;;;;;;67.27;30.57;;;11.50;97.50;;;;;;5034459;28;20231;-86
2024/02/15 09:47:50;;;;;;;69.93;31.03;;;11.60;97.50;;;;;;5016938;28;20188;-87
2024/02/15 09:50:17;;;;;;;57.93;28.33;;;11.60;97.50;;;;;;5036454;28;20238;-89
2024/02/15 09:52:54;;;;;;;62.13;28.00;;;11.60;97.50;;;;;;5036986;28;20576;-88
2024/02/15 09:55:22;;;;;;;55.03;27.00;;;11.70;97.50;;;;;;5019841;28;20176;-88
2024/02/15 09:57:50;;;;;;;57.30;29.20;;;11.60;97.50;;;;;;5019891;28;20207;-88
2024/02/15 10:00:16;;;;;;;58.03;28.07;;;11.60;97.50;;;;;;5020030;28;20177;-88
2024/02/15 10:02:49;;;;;;;62.47;29.87;;;11.60;97.50;;;;;;5036015;28;20203;-85
2024/02/15 10:05:17;;;;;;;64.60;30.17;;;11.70;97.50;;;;;;5035795;28;20675;-86
2024/02/15 10:07:44;;;;;;;59.40;29.30;;;11.70;97.50;;;;;;5035303;28;20220;-85
2024/02/15 10:10:23;;;;;;;62.10;28.27;;;11.70;97.50;;;;;;5034877;28;20177;-85
2024/02/15 10:12:56;;;;;;;63.03;28.87;;;11.70;97.50;;;;;;5017225;28;20177;-85
2024/02/15 10:15:35;;;;;;;62.90;30.90;;;11.80;97.50;;;;;;5034797;28;20583;-85
2024/02/15 10:18:03;;;;;;;58.37;28.57;;;11.80;97.50;;;;;;5017166;28;20220;-87
2024/02/15 10:20:29;;;;;;;66.80;29.90;;;11.80;97.50;;;;;;5016921;28;20176;-84
2024/02/15 10:23:00;;;;;;;52.63;28.47;;;11.80;97.50;;;;;;5035509;28;20187;-84
2024/02/15 10:25:29;;;;;;;55.77;30.53;;;11.90;97.50;;;;;;5034608;28;20200;-86
2024/02/15 10:28:12;;;;;;;58.00;29.80;;;11.90;97.50;;;;;;5034671;28;20200;-86
2024/02/15 10:30:43;;;;;;;48.17;27.50;;;12.00;97.50;;;;;;5034442;28;20172;-85
2024/02/15 10:33:09;;;;;;;47.40;28.40;;;12.00;97.50;;;;;;5034361;28;20621;-85
2024/02/15 10:35:34;;;;;;;49.60;29.13;;;12.00;97.40;;;;;;5034517;28;20203;-85
2024/02/15 10:38:10;;;;;;;48.70;29.43;;;12.00;97.40;;;;;;5034378;28;20201;-85
2024/02/15 10:40:37;;;;;;;41.57;27.50;;;12.00;97.40;;;;;;5017036;28;20310;-87
2024/02/15 10:43:05;;;;;;;48.17;28.17;;;12.00;97.40;;;;;;5034331;28;20177;-85
2024/02/15 10:45:31;;;;;;;49.00;29.20;;;12.00;97.30;;;;;;5017504;28;20569;-85
2024/02/15 10:47:57;;;;;;;50.07;29.70;;;12.00;97.30;;;;;;5034297;28;20192;-85
2024/02/15 10:50:23;;;;;;;46.03;28.37;;;12.00;97.30;;;;;;5034666;28;20259;-86
2024/02/15 10:52:58;;;;;;;43.60;28.10;;;12.10;97.30;;;;;;5034361;28;20246;-85
2024/02/15 10:55:46;;;;;;;50.03;28.23;;;12.10;97.20;;;;;;5016265;28;20187;-87
2024/02/15 10:58:16;;;;;;;45.17;30.00;;;12.00;97.20;;;;;;5034365;28;20402;-86
2024/02/15 11:00:46;;;;;;;50.27;30.57;;;12.10;97.20;;;;;;5034435;28;20169;-85
2024/02/15 11:03:17;;;;;;;51.60;30.03;;;12.10;97.20;;;;;;5016381;28;20199;-85
2024/02/15 11:05:45;;;;;;;53.67;31.23;;;12.10;97.20;;;;;;5036601;28;20528;-88
2024/02/15 11:08:12;;;;;;;51.40;32.07;;;12.00;97.10;;;;;;5035542;28;20189;-88
2024/02/15 11:10:40;;;;;;;45.13;30.07;;;12.10;97.20;;;;;;5017869;28;20181;-87
2024/02/15 11:13:06;;;;;;;51.10;30.37;;;12.10;97.10;;;;;;5017222;28;20681;-85
2024/02/15 11:15:49;;;;;;;43.30;29.73;;;12.10;97.20;;;;;;5034597;28;20220;-85
2024/02/15 11:18:44;;;;;;;50.67;30.67;;;12.20;97.10;;;;;;5018776;28;20663;-85
2024/02/15 11:21:10;;;;;;;51.37;32.10;;;12.10;97.10;;;;;;5038214;28;20177;-85
2024/02/15 11:23:36;;;;;;;48.10;30.87;;;12.00;97.10;;;;;;5037441;28;20633;-85
2024/02/15 11:26:01;;;;;;;52.87;31.50;;;12.00;97.10;;;;;;5037711;28;20200;-85
2024/02/15 11:28:30;;;;;;;50.43;32.67;;;12.10;97.10;;;;;;5037940;28;20196;-86
2024/02/15 11:30:56;;;;;;;47.77;31.83;;;12.10;97.10;;;;;;5019898;28;20180;-86
2024/02/15 11:33:32;;;;;;;55.00;32.87;;;12.20;97.10;;;;;;5019819;28;20640;-86
2024/02/15 11:36:11;;;;;;;56.93;32.37;;;12.10;97.10;;;;;;5037770;28;20239;-86
2024/02/15 11:38:41;;;;;;;55.43;33.43;;;12.10;97.10;;;;;;5037675;28;20211;-86
2024/02/15 11:41:08;;;;;;;51.77;33.03;;;12.10;97.10;;;;;;5037897;28;20207;-85
2024/02/15 11:43:49;;;;;;;54.23;34.07;;;12.10;97.10;;;;;;5037159;28;20183;-85
2024/02/15 11:46:18;;;;;;;59.63;36.27;;;12.00;97.10;;;;;;5019539;28;20176;-85
2024/02/15 11:48:47;;;;;;;54.30;35.00;;;12.00;97.10;;;;;;5019117;28;20568;-85
2024/02/15 11:51:44;;;;;;;66.97;36.57;;;12.00;97.10;;;;;;5037198;28;20177;-86
2024/02/15 11:54:14;;;;;;;60.40;35.90;;;12.00;97.20;;;;;;5037659;28;20502;-87
2024/02/15 11:56:51;;;;;;;67.20;37.77;;;12.00;97.20;;;;;;5037305;28;20176;-85
2024/02/15 11:59:31;;;;;;;71.23;40.70;;;12.00;97.20;;;;;;5037099;28;20189;-85
2024/02/15 12:18:44;;;;;;;64.87;37.30;;;12.00;97.20;;;;;;5039714;28;20203;-86
2024/02/15 12:21:12;;;;;;;62.27;37.50;;;12.00;97.20;;;;;;5020927;28;20181;-85
2024/02/15 12:23:38;;;;;;;60.03;35.23;;;12.00;97.20;;;;;;5020242;28;20189;-86
2024/02/15 12:26:04;;;;;;;60.23;37.50;;;12.00;97.30;;;;;;5038407;28;20196;-86
2024/02/15 12:28:30;;;;;;;64.50;37.30;;;12.00;97.30;;;;;;5038320;28;20607;-85
2024/02/15 12:30:57;;;;;;;55.50;35.40;;;12.00;97.30;;;;;;5038108;28;20648;-85
2024/02/15 12:33:23;;;;;;;59.13;36.17;;;12.00;97.30;;;;;;5037700;28;20171;-86
2024/02/15 12:35:50;;;;;;;58.70;35.33;;;12.00;97.30;;;;;;5037272;28;20602;-85
2024/02/15 12:38:16;;;;;;;59.33;34.93;;;12.00;97.40;;;;;;5037440;28;20238;-85
2024/02/15 12:40:43;;;;;;;55.20;33.87;;;12.00;97.30;;;;;;5037340;28;20169;-86
2024/02/15 12:43:09;;;;;;;53.97;32.83;;;12.00;97.30;;;;;;5037268;28;20705;-86
2024/02/15 12:45:40;;;;;;;54.13;33.07;;;12.00;97.30;;;;;;5037039;28;20196;-85
2024/02/15 12:48:07;;;;;;;50.10;32.73;;;12.00;97.30;;;;;;5019118;28;20201;-86
2024/02/15 12:50:36;;;;;;;50.10;31.87;;;12.00;97.30;;;;;;5037104;28;20228;-87
2024/02/15 12:53:02;;;;;;;47.00;30.47;;;12.00;97.30;;;;;;5036952;28;20164;-85
2024/02/15 12:55:35;;;;;;;46.13;30.23;;;12.00;97.30;;;;;;5019400;28;20191;-86
2024/02/15 12:58:03;;;;;;;43.73;30.17;;;12.00;97.40;;;;;;5019350;28;20197;-87